Hartford, Connecticut
Traffic Map
Current Weather Conditions
Hartford, Connecticut
Overcast
Overcast
72°
Feels Like: 72°
Wind Chill: 72° Ceiling: 3100
Heat Index: 72° Visibility: 10mi
Dew Point: 68° Wind: 0mph
Humidity: 87% Direction: ° ()
Pressure: 29.86in Gusts: 0mph
Raw Report DataKHFD 291042Z 00000KT 10SM SCT008 BKN031 OVC048 22/20 A2986 RMK AO2 T02220200
Traffic Incident Summary
Active as of:
Severity:
Category:
InformationThere was an issue retrieving the traffic information for this location. Please try a different location or try again shortly.
Advertisements
Track Severe Weather on mobile